sensor_id;sensor_type;location;lat;lon;timestamp;pressure;altitude;pressure_sealevel;temperature
49557;BMP280;35462;45.048;7.666;2024-03-08T00:03:44;98758.66;;;8.60
49557;BMP280;35462;45.048;7.666;2024-03-08T00:18:47;98765.94;;;8.56
49557;BMP280;35462;45.048;7.666;2024-03-08T00:33:51;98767.94;;;8.49
49557;BMP280;35462;45.048;7.666;2024-03-08T00:48:54;98759.44;;;8.38
49557;BMP280;35462;45.048;7.666;2024-03-08T01:03:58;98756.38;;;8.16
49557;BMP280;35462;45.048;7.666;2024-03-08T01:19:00;98747.31;;;8.14
49557;BMP280;35462;45.048;7.666;2024-03-08T01:34:03;98750.38;;;8.12
49557;BMP280;35462;45.048;7.666;2024-03-08T01:49:06;98732.28;;;8.30
49557;BMP280;35462;45.048;7.666;2024-03-08T02:04:09;98701.88;;;8.38
49557;BMP280;35462;45.048;7.666;2024-03-08T02:19:13;98703.22;;;8.46
49557;BMP280;35462;45.048;7.666;2024-03-08T02:34:15;98688.00;;;8.50
49557;BMP280;35462;45.048;7.666;2024-03-08T02:49:17;98699.31;;;8.54
49557;BMP280;35462;45.048;7.666;2024-03-08T03:04:20;98689.84;;;8.53
49557;BMP280;35462;45.048;7.666;2024-03-08T03:19:22;98684.06;;;8.39
49557;BMP280;35462;45.048;7.666;2024-03-08T03:34:26;98683.72;;;8.37
49557;BMP280;35462;45.048;7.666;2024-03-08T03:49:28;98701.72;;;7.24
49557;BMP280;35462;45.048;7.666;2024-03-08T04:04:31;98711.63;;;7.72
49557;BMP280;35462;45.048;7.666;2024-03-08T04:19:33;98704.28;;;7.83
49557;BMP280;35462;45.048;7.666;2024-03-08T04:34:36;98700.06;;;7.86
49557;BMP280;35462;45.048;7.666;2024-03-08T04:49:39;98693.69;;;7.83
49557;BMP280;35462;45.048;7.666;2024-03-08T05:04:41;98693.91;;;7.92
49557;BMP280;35462;45.048;7.666;2024-03-08T05:19:44;98704.66;;;7.85
49557;BMP280;35462;45.048;7.666;2024-03-08T05:34:47;98700.66;;;7.48
49557;BMP280;35462;45.048;7.666;2024-03-08T05:49:49;98710.41;;;7.51
49557;BMP280;35462;45.048;7.666;2024-03-08T06:04:52;98708.50;;;7.55
49557;BMP280;35462;45.048;7.666;2024-03-08T06:19:54;98727.22;;;7.41
49557;BMP280;35462;45.048;7.666;2024-03-08T06:34:56;98735.19;;;7.37
49557;BMP280;35462;45.048;7.666;2024-03-08T06:49:59;98757.00;;;7.74
49557;BMP280;35462;45.048;7.666;2024-03-08T07:05:02;98751.72;;;8.24
49557;BMP280;35462;45.048;7.666;2024-03-08T07:20:07;98765.00;;;8.43
49557;BMP280;35462;45.048;7.666;2024-03-08T07:35:14;98773.44;;;8.80
49557;BMP280;35462;45.048;7.666;2024-03-08T07:50:17;98783.75;;;10.92
49557;BMP280;35462;45.048;7.666;2024-03-08T08:05:19;98789.97;;;10.29
49557;BMP280;35462;45.048;7.666;2024-03-08T08:20:22;98794.78;;;9.86
49557;BMP280;35462;45.048;7.666;2024-03-08T08:35:25;98784.63;;;9.30
49557;BMP280;35462;45.048;7.666;2024-03-08T08:50:28;98797.03;;;9.17
49557;BMP280;35462;45.048;7.666;2024-03-08T09:05:30;98788.75;;;9.51
49557;BMP280;35462;45.048;7.666;2024-03-08T09:20:33;98784.81;;;9.39
49557;BMP280;35462;45.048;7.666;2024-03-08T09:35:36;98772.81;;;9.31
49557;BMP280;35462;45.048;7.666;2024-03-08T09:50:38;98767.56;;;9.98
49557;BMP280;35462;45.048;7.666;2024-03-08T10:05:41;98783.44;;;9.51
49557;BMP280;35462;45.048;7.666;2024-03-08T10:20:45;98773.34;;;9.93
49557;BMP280;35462;45.048;7.666;2024-03-08T10:35:48;98764.16;;;9.47
49557;BMP280;35462;45.048;7.666;2024-03-08T10:50:52;98756.41;;;9.56
49557;BMP280;35462;45.048;7.666;2024-03-08T11:05:55;98768.25;;;9.16
49557;BMP280;35462;45.048;7.666;2024-03-08T11:20:59;98779.56;;;8.77
49557;BMP280;35462;45.048;7.666;2024-03-08T11:36:08;98756.53;;;8.94
49557;BMP280;35462;45.048;7.666;2024-03-08T11:51:13;98734.06;;;9.18
49557;BMP280;35462;45.048;7.666;2024-03-08T12:06:17;98721.69;;;8.92
49557;BMP280;35462;45.048;7.666;2024-03-08T12:21:20;98708.47;;;8.69
49557;BMP280;35462;45.048;7.666;2024-03-08T12:36:26;98687.88;;;8.76
49557;BMP280;35462;45.048;7.666;2024-03-08T12:51:28;98658.19;;;9.01
49557;BMP280;35462;45.048;7.666;2024-03-08T13:06:32;98646.44;;;9.02
49557;BMP280;35462;45.048;7.666;2024-03-08T13:21:34;98631.50;;;9.08
49557;BMP280;35462;45.048;7.666;2024-03-08T13:36:37;98617.56;;;9.04
49557;BMP280;35462;45.048;7.666;2024-03-08T13:51:44;98612.91;;;8.92
49557;BMP280;35462;45.048;7.666;2024-03-08T14:06:47;98607.94;;;8.94
49557;BMP280;35462;45.048;7.666;2024-03-08T14:21:51;98610.34;;;8.88
49557;BMP280;35462;45.048;7.666;2024-03-08T14:36:55;98605.53;;;8.64
49557;BMP280;35462;45.048;7.666;2024-03-08T14:51:58;98620.31;;;8.03
49557;BMP280;35462;45.048;7.666;2024-03-08T15:07:00;98587.84;;;7.99
49557;BMP280;35462;45.048;7.666;2024-03-08T15:22:04;98570.91;;;8.71
49557;BMP280;35462;45.048;7.666;2024-03-08T15:37:06;98552.63;;;8.92
49557;BMP280;35462;45.048;7.666;2024-03-08T15:52:09;98537.13;;;9.07
49557;BMP280;35462;45.048;7.666;2024-03-08T16:07:12;98536.13;;;9.01
49557;BMP280;35462;45.048;7.666;2024-03-08T16:22:14;98542.50;;;8.87
49557;BMP280;35462;45.048;7.666;2024-03-08T16:37:17;98549.72;;;8.87
49557;BMP280;35462;45.048;7.666;2024-03-08T16:52:20;98545.88;;;8.72
49557;BMP280;35462;45.048;7.666;2024-03-08T17:07:25;98556.72;;;8.42
49557;BMP280;35462;45.048;7.666;2024-03-08T17:22:27;98584.00;;;8.43
49557;BMP280;35462;45.048;7.666;2024-03-08T17:37:30;98595.22;;;8.31
49557;BMP280;35462;45.048;7.666;2024-03-08T17:52:33;98594.13;;;8.28
49557;BMP280;35462;45.048;7.666;2024-03-08T18:07:35;98601.22;;;8.12
49557;BMP280;35462;45.048;7.666;2024-03-08T18:22:39;98580.28;;;7.98
49557;BMP280;35462;45.048;7.666;2024-03-08T18:37:42;98568.53;;;7.79
49557;BMP280;35462;45.048;7.666;2024-03-08T18:52:45;98566.47;;;7.68
49557;BMP280;35462;45.048;7.666;2024-03-08T19:07:51;98557.31;;;7.72
49557;BMP280;35462;45.048;7.666;2024-03-08T19:22:55;98549.88;;;7.64
49557;BMP280;35462;45.048;7.666;2024-03-08T19:37:59;98543.44;;;7.42
49557;BMP280;35462;45.048;7.666;2024-03-08T19:53:02;98533.47;;;7.49
49557;BMP280;35462;45.048;7.666;2024-03-08T20:08:09;98534.34;;;7.43
49557;BMP280;35462;45.048;7.666;2024-03-08T20:23:16;98570.97;;;7.21
49557;BMP280;35462;45.048;7.666;2024-03-08T20:38:18;98593.56;;;7.26
49557;BMP280;35462;45.048;7.666;2024-03-08T20:53:24;98607.75;;;7.39
49557;BMP280;35462;45.048;7.666;2024-03-08T21:08:28;98580.81;;;7.21
49557;BMP280;35462;45.048;7.666;2024-03-08T21:23:30;98565.19;;;7.30
49557;BMP280;35462;45.048;7.666;2024-03-08T21:38:34;98576.84;;;7.32
49557;BMP280;35462;45.048;7.666;2024-03-08T21:53:38;98547.91;;;7.22
49557;BMP280;35462;45.048;7.666;2024-03-08T22:08:41;98540.50;;;7.10
49557;BMP280;35462;45.048;7.666;2024-03-08T22:23:44;98539.38;;;7.11
49557;BMP280;35462;45.048;7.666;2024-03-08T22:38:46;98528.75;;;7.14
49557;BMP280;35462;45.048;7.666;2024-03-08T22:53:48;98501.69;;;7.03
49557;BMP280;35462;45.048;7.666;2024-03-08T23:08:51;98510.78;;;6.76
49557;BMP280;35462;45.048;7.666;2024-03-08T23:23:54;98506.06;;;6.64
49557;BMP280;35462;45.048;7.666;2024-03-08T23:38:56;98484.47;;;6.95
49557;BMP280;35462;45.048;7.666;2024-03-08T23:53:59;98478.41;;;6.95
